Time,TemperatureF,DewpointF,PressureIn,WindDirection,WindDirectionDegrees,WindSpeedMPH,WindSpeedGustMPH,Humidity,HourlyPrecipIn,Conditions,Clouds,dailyrainin,SoftwareType,DateUTC
2013-05-25 00:01:00,50.0,24.0,-100.00,WNW,291,10.0,22.0,35,-99.99,,,-99.99,,2013-05-25 07:01:00,
2013-05-25 00:11:00,50.0,23.0,-100.00,West,281,11.0,19.0,35,-99.99,,,-99.99,,2013-05-25 07:11:00,
2013-05-25 00:21:00,50.0,23.0,-100.00,WNW,282,11.0,20.0,34,-99.99,,,-99.99,,2013-05-25 07:21:00,
2013-05-25 00:31:00,50.0,22.0,-100.00,WNW,295,10.0,20.0,33,-99.99,,,-99.99,,2013-05-25 07:31:00,
2013-05-25 00:42:00,50.0,22.0,-100.00,WNW,295,10.0,20.0,33,-99.99,,,-99.99,,2013-05-25 07:42:00,
2013-05-25 00:52:00,50.0,22.0,-100.00,WNW,291,11.0,20.0,33,-99.99,,,-99.99,,2013-05-25 07:52:00,
2013-05-25 01:02:00,50.0,24.0,-100.00,WNW,284,10.0,19.0,35,-99.99,,,-99.99,,2013-05-25 08:02:00,
2013-05-25 01:11:00,51.0,23.0,-100.00,WNW,287,10.0,19.0,34,-99.99,,,-99.99,,2013-05-25 08:11:00,
2013-05-25 01:22:00,51.0,25.0,-100.00,WNW,294,9.0,18.0,37,-99.99,,,-99.99,,2013-05-25 08:22:00,
2013-05-25 01:32:00,51.0,24.0,-100.00,WNW,285,10.0,20.0,34,-99.99,,,-99.99,,2013-05-25 08:32:00,
2013-05-25 01:42:00,51.0,24.0,-100.00,WNW,285,10.0,20.0,34,-99.99,,,-99.99,,2013-05-25 08:42:00,
2013-05-25 01:51:00,50.0,27.0,-100.00,WNW,282,10.0,24.0,41,-99.99,,,-99.99,,2013-05-25 08:51:00,
2013-05-25 02:01:00,50.0,27.0,-100.00,WNW,282,10.0,24.0,41,-99.99,,,-99.99,,2013-05-25 09:01:00,
2013-05-25 02:11:00,50.0,26.0,-100.00,WNW,284,10.0,25.0,40,-99.99,,,-99.99,,2013-05-25 09:11:00,
2013-05-25 02:21:00,50.0,27.0,-100.00,West,281,10.0,22.0,41,-99.99,,,-99.99,,2013-05-25 09:21:00,
2013-05-25 02:33:00,50.0,26.0,-100.00,West,277,10.0,22.0,40,-99.99,,,-99.99,,2013-05-25 09:33:00,
2013-05-25 02:41:00,49.0,22.0,-100.00,West,281,7.0,13.0,35,-99.99,,,-99.99,,2013-05-25 09:41:00,
2013-05-25 02:42:00,50.0,26.0,-100.00,West,277,10.0,20.0,39,-99.99,,,-99.99,,2013-05-25 09:42:00,
2013-05-25 02:52:00,49.0,25.0,-100.00,West,280,10.0,18.0,38,-99.99,,,-99.99,,2013-05-25 09:52:00,
2013-05-25 03:02:00,49.0,25.0,-100.00,West,280,10.0,18.0,38,-99.99,,,-99.99,,2013-05-25 10:02:00,
2013-05-25 03:12:00,49.0,22.0,-100.00,WNW,282,8.0,18.0,34,-99.99,,,-99.99,,2013-05-25 10:12:00,
2013-05-25 03:22:00,49.0,22.0,-100.00,West,281,7.0,13.0,35,-99.99,,,-99.99,,2013-05-25 10:22:00,
2013-05-25 03:32:00,49.0,22.0,-100.00,West,281,7.0,13.0,35,-99.99,,,-99.99,,2013-05-25 10:32:00,
2013-05-25 05:32:00,49.0,16.0,-100.00,WNW,292,5.0,16.0,26,-99.99,,,-99.99,,2013-05-25 12:32:00,
2013-05-25 05:52:00,48.0,14.0,-100.00,WNW,287,4.0,10.0,25,-99.99,,,-99.99,,2013-05-25 12:52:00,
2013-05-25 06:02:00,49.0,16.0,-100.00,NW,311,2.0,10.0,26,-99.99,,,-99.99,,2013-05-25 13:02:00,
2013-05-25 06:11:00,49.0,13.0,-100.00,WNW,287,4.0,13.0,23,-99.99,,,-99.99,,2013-05-25 13:11:00,
2013-05-25 06:21:00,49.0,13.0,-100.00,West,281,4.0,11.0,23,-99.99,,,-99.99,,2013-05-25 13:21:00,
2013-05-25 06:32:00,50.0,14.0,-100.00,West,272,4.0,9.0,23,-99.99,,,-99.99,,2013-05-25 13:32:00,
2013-05-25 06:52:00,50.0,14.0,-100.00,West,263,4.0,14.0,23,-99.99,,,-99.99,,2013-05-25 13:52:00,
2013-05-25 07:02:00,51.0,13.0,-100.00,West,263,4.0,10.0,22,-99.99,,,-99.99,,2013-05-25 14:02:00,
2013-05-25 07:11:00,51.0,24.0,-100.00,SSW,212,2.0,6.0,35,-99.99,,,-99.99,,2013-05-25 14:11:00,
2013-05-25 07:22:00,50.0,26.0,-100.00,NE,56,2.0,10.0,39,-99.99,,,-99.99,,2013-05-25 14:22:00,
2013-05-25 07:32:00,50.0,25.0,-100.00,East,86,2.0,10.0,38,-99.99,,,-99.99,,2013-05-25 14:32:00,
2013-05-25 07:41:00,52.0,26.0,-100.00,NE,52,2.0,4.0,36,-99.99,,,-99.99,,2013-05-25 14:41:00,
2013-05-25 07:52:00,52.0,23.0,-100.00,ENE,65,2.0,7.0,32,-99.99,,,-99.99,,2013-05-25 14:52:00,
2013-05-25 08:01:00,52.0,25.0,-100.00,NE,52,2.0,11.0,35,-99.99,,,-99.99,,2013-05-25 15:01:00,
2013-05-25 08:11:00,52.0,25.0,-100.00,NE,52,2.0,11.0,35,-99.99,,,-99.99,,2013-05-25 15:11:00,
2013-05-25 08:22:00,52.0,26.0,-100.00,ENE,78,2.0,6.0,35,-99.99,,,-99.99,,2013-05-25 15:22:00,
2013-05-25 08:33:00,53.0,26.0,-100.00,East,85,2.0,8.0,34,-99.99,,,-99.99,,2013-05-25 15:33:00,
2013-05-25 08:43:00,53.0,26.0,-100.00,East,85,2.0,8.0,34,-99.99,,,-99.99,,2013-05-25 15:43:00,
2013-05-25 08:53:00,54.0,27.0,-100.00,ENE,73,3.0,7.0,35,-99.99,,,-99.99,,2013-05-25 15:53:00,
2013-05-25 09:03:00,53.0,26.0,-100.00,ENE,76,2.0,11.0,35,-99.99,,,-99.99,,2013-05-25 16:03:00,
2013-05-25 09:12:00,54.0,25.0,-100.00,NE,55,3.0,8.0,32,-99.99,,,-99.99,,2013-05-25 16:12:00,
2013-05-25 09:23:00,55.0,29.0,-100.00,ENE,64,3.0,7.0,37,-99.99,,,-99.99,,2013-05-25 16:23:00,
2013-05-25 09:32:00,56.0,27.0,-100.00,East,90,4.0,15.0,33,-99.99,,,-99.99,,2013-05-25 16:32:00,
2013-05-25 09:42:00,56.0,27.0,-100.00,East,90,4.0,15.0,33,-99.99,,,-99.99,,2013-05-25 16:42:00,
2013-05-25 09:52:00,57.0,25.0,-100.00,ENE,62,3.0,12.0,29,-99.99,,,-99.99,,2013-05-25 16:52:00,
2013-05-25 10:02:00,57.0,25.0,-100.00,East,80,4.0,14.0,29,-99.99,,,-99.99,,2013-05-25 17:02:00,
2013-05-25 10:11:00,58.0,22.0,-100.00,East,82,5.0,13.0,25,-99.99,,,-99.99,,2013-05-25 17:11:00,
2013-05-25 10:21:00,60.0,20.0,-100.00,East,92,4.0,11.0,21,-99.99,,,-99.99,,2013-05-25 17:21:00,
2013-05-25 10:22:00,58.0,24.0,-100.00,East,88,5.0,13.0,27,-99.99,,,-99.99,,2013-05-25 17:22:00,
2013-05-25 10:32:00,59.0,23.0,-100.00,East,89,5.0,11.0,25,-99.99,,,-99.99,,2013-05-25 17:32:00,
2013-05-25 10:41:00,59.0,23.0,-100.00,East,89,5.0,11.0,25,-99.99,,,-99.99,,2013-05-25 17:41:00,
2013-05-25 10:52:00,60.0,20.0,-100.00,East,92,4.0,11.0,21,-99.99,,,-99.99,,2013-05-25 17:52:00,
2013-05-25 11:01:00,60.0,20.0,-100.00,East,92,4.0,11.0,21,-99.99,,,-99.99,,2013-05-25 18:01:00,
2013-05-25 11:11:00,60.0,20.0,-100.00,East,92,4.0,11.0,21,-99.99,,,-99.99,,2013-05-25 18:11:00,
2013-05-25 12:31:00,64.0,20.0,-100.00,NW,316,9.0,19.0,18,-99.99,,,-99.99,,2013-05-25 19:31:00,
2013-05-25 13:11:00,64.0,20.0,-100.00,NW,316,9.0,19.0,18,-99.99,,,-99.99,,2013-05-25 20:11:00,
2013-05-25 13:21:00,64.0,20.0,-100.00,NW,316,9.0,19.0,18,-99.99,,,-99.99,,2013-05-25 20:21:00,
2013-05-25 15:03:00,65.0,24.0,-100.00,NW,313,11.0,24.0,21,-99.99,,,-99.99,,2013-05-25 22:03:00,
2013-05-25 15:12:00,65.0,24.0,-100.00,NW,313,11.0,24.0,21,-99.99,,,-99.99,,2013-05-25 22:12:00,
2013-05-25 15:22:00,65.0,27.0,-100.00,NW,308,9.0,20.0,24,-99.99,,,-99.99,,2013-05-25 22:22:00,
2013-05-25 15:32:00,66.0,26.0,-100.00,NW,305,10.0,21.0,22,-99.99,,,-99.99,,2013-05-25 22:32:00,
2013-05-25 15:42:00,66.0,26.0,-100.00,NW,305,10.0,21.0,22,-99.99,,,-99.99,,2013-05-25 22:42:00,
2013-05-25 15:52:00,66.0,28.0,-100.00,WNW,285,9.0,21.0,24,-99.99,,,-99.99,,2013-05-25 22:52:00,
2013-05-25 16:02:00,66.0,28.0,-100.00,WNW,285,9.0,21.0,24,-99.99,,,-99.99,,2013-05-25 23:02:00,
2013-05-25 16:12:00,66.0,28.0,-100.00,West,277,9.0,26.0,24,-99.99,,,-99.99,,2013-05-25 23:12:00,
2013-05-25 16:21:00,65.0,28.0,-100.00,WNW,294,7.0,22.0,24,-99.99,,,-99.99,,2013-05-25 23:21:00,
2013-05-25 16:32:00,66.0,28.0,-100.00,West,275,6.0,18.0,24,-99.99,,,-99.99,,2013-05-25 23:32:00,
2013-05-25 16:42:00,66.0,28.0,-100.00,West,275,6.0,18.0,24,-99.99,,,-99.99,,2013-05-25 23:42:00,
2013-05-25 16:52:00,66.0,27.0,-100.00,West,267,5.0,17.0,23,-99.99,,,-99.99,,2013-05-25 23:52:00,
2013-05-25 17:01:00,66.0,27.0,-100.00,West,267,5.0,17.0,23,-99.99,,,-99.99,,2013-05-26 00:01:00,
2013-05-25 17:11:00,66.0,28.0,-100.00,West,268,5.0,13.0,24,-99.99,,,-99.99,,2013-05-26 00:11:00,
2013-05-25 17:21:00,65.0,28.0,-100.00,WNW,301,4.0,14.0,25,-99.99,,,-99.99,,2013-05-26 00:21:00,
2013-05-25 17:31:00,64.0,26.0,-100.00,West,278,6.0,19.0,24,-99.99,,,-99.99,,2013-05-26 00:31:00,
2013-05-25 17:42:00,64.0,26.0,-100.00,West,278,6.0,19.0,24,-99.99,,,-99.99,,2013-05-26 00:42:00,
2013-05-25 17:52:00,64.0,27.0,-100.00,West,280,5.0,12.0,25,-99.99,,,-99.99,,2013-05-26 00:52:00,
2013-05-25 18:01:00,64.0,27.0,-100.00,West,280,5.0,15.0,25,-99.99,,,-99.99,,2013-05-26 01:01:00,
2013-05-25 18:11:00,62.0,28.0,-100.00,West,280,7.0,16.0,27,-99.99,,,-99.99,,2013-05-26 01:11:00,
2013-05-25 18:21:00,62.0,28.0,-100.00,West,280,7.0,16.0,27,-99.99,,,-99.99,,2013-05-26 01:21:00,
2013-05-25 18:32:00,61.0,28.0,-100.00,West,274,5.0,13.0,28,-99.99,,,-99.99,,2013-05-26 01:32:00,
2013-05-25 18:41:00,61.0,28.0,-100.00,West,274,5.0,13.0,28,-99.99,,,-99.99,,2013-05-26 01:41:00,
2013-05-25 18:52:00,60.0,30.0,-100.00,West,268,5.0,13.0,32,-99.99,,,-99.99,,2013-05-26 01:52:00,
2013-05-25 19:02:00,60.0,30.0,-100.00,West,268,5.0,13.0,32,-99.99,,,-99.99,,2013-05-26 02:02:00,
2013-05-25 19:11:00,59.0,30.0,-100.00,West,272,8.0,20.0,33,-99.99,,,-99.99,,2013-05-26 02:11:00,
2013-05-25 19:21:00,59.0,31.0,-100.00,West,281,10.0,20.0,35,-99.99,,,-99.99,,2013-05-26 02:21:00,
2013-05-25 19:32:00,58.0,33.0,-100.00,West,274,9.0,20.0,38,-99.99,,,-99.99,,2013-05-26 02:32:00,
2013-05-25 19:41:00,58.0,33.0,-100.00,West,274,9.0,20.0,38,-99.99,,,-99.99,,2013-05-26 02:41:00,
2013-05-25 19:52:00,57.0,32.0,-100.00,West,277,7.0,17.0,38,-99.99,,,-99.99,,2013-05-26 02:52:00,
2013-05-25 20:01:00,57.0,33.0,-100.00,West,278,11.0,24.0,40,-99.99,,,-99.99,,2013-05-26 03:01:00,
2013-05-25 20:11:00,56.0,32.0,-100.00,West,274,11.0,24.0,40,-99.99,,,-99.99,,2013-05-26 03:11:00,
2013-05-25 20:21:00,56.0,33.0,-100.00,West,277,11.0,24.0,41,-99.99,,,-99.99,,2013-05-26 03:21:00,
2013-05-25 20:33:00,56.0,33.0,-100.00,West,278,11.0,24.0,42,-99.99,,,-99.99,,2013-05-26 03:33:00,
2013-05-25 20:42:00,55.0,33.0,-100.00,West,274,10.0,21.0,43,-99.99,,,-99.99,,2013-05-26 03:42:00,
2013-05-25 20:53:00,55.0,33.0,-100.00,West,275,9.0,21.0,43,-99.99,,,-99.99,,2013-05-26 03:53:00,
2013-05-25 21:02:00,54.0,33.0,-100.00,WNW,289,10.0,30.0,45,-99.99,,,-99.99,,2013-05-26 04:02:00,
2013-05-25 21:12:00,54.0,33.0,-100.00,WNW,289,10.0,30.0,45,-99.99,,,-99.99,,2013-05-26 04:12:00,
2013-05-25 21:23:00,53.0,33.0,-100.00,West,270,10.0,28.0,46,-99.99,,,-99.99,,2013-05-26 04:23:00,
2013-05-25 21:33:00,54.0,27.0,-100.00,West,281,8.0,29.0,35,-99.99,,,-99.99,,2013-05-26 04:33:00,
2013-05-25 22:02:00,54.0,28.0,-100.00,West,270,6.0,18.0,37,-99.99,,,-99.99,,2013-05-26 05:02:00,
2013-05-25 22:12:00,53.0,25.0,-100.00,West,267,6.0,22.0,34,-99.99,,,-99.99,,2013-05-26 05:12:00,
2013-05-25 22:22:00,53.0,24.0,-100.00,West,274,6.0,22.0,32,-99.99,,,-99.99,,2013-05-26 05:22:00,
2013-05-25 22:32:00,54.0,23.0,-100.00,West,264,4.0,12.0,30,-99.99,,,-99.99,,2013-05-26 05:32:00,
2013-05-25 22:42:00,54.0,23.0,-100.00,West,264,4.0,12.0,30,-99.99,,,-99.99,,2013-05-26 05:42:00,
2013-05-25 22:52:00,52.0,22.0,-100.00,West,281,4.0,13.0,30,-99.99,,,-99.99,,2013-05-26 05:52:00,
2013-05-25 23:01:00,52.0,22.0,-100.00,West,281,4.0,13.0,30,-99.99,,,-99.99,,2013-05-26 06:01:00,
2013-05-25 23:11:00,52.0,26.0,-100.00,WNW,295,6.0,15.0,36,-99.99,,,-99.99,,2013-05-26 06:11:00,
2013-05-25 23:21:00,52.0,25.0,-100.00,NW,304,5.0,15.0,35,-99.99,,,-99.99,,2013-05-26 06:21:00,
2013-05-25 23:32:00,51.0,28.0,-100.00,NW,304,6.0,20.0,41,-99.99,,,-99.99,,2013-05-26 06:32:00,
2013-05-25 23:41:00,51.0,28.0,-100.00,NW,304,6.0,20.0,41,-99.99,,,-99.99,,2013-05-26 06:41:00,
2013-05-25 23:51:00,51.0,27.0,-100.00,WNW,302,6.0,16.0,39,-99.99,,,-99.99,,2013-05-26 06:51:00,